sensor_id;sensor_type;location;lat;lon;timestamp;P1;durP1;ratioP1;P2;durP2;ratioP2
38332;SDS011;25748;46.670;14.272;2022-11-18T00:02:05;8.00;;;3.13;;
38332;SDS011;25748;46.670;14.272;2022-11-18T00:04:31;5.25;;;2.85;;
38332;SDS011;25748;46.670;14.272;2022-11-18T00:06:57;6.60;;;3.00;;
38332;SDS011;25748;46.670;14.272;2022-11-18T00:09:22;6.30;;;3.10;;
38332;SDS011;25748;46.670;14.272;2022-11-18T00:11:48;4.97;;;3.13;;
38332;SDS011;25748;46.670;14.272;2022-11-18T00:14:32;5.63;;;2.90;;
38332;SDS011;25748;46.670;14.272;2022-11-18T00:16:59;6.60;;;3.25;;
38332;SDS011;25748;46.670;14.272;2022-11-18T00:19:27;5.35;;;2.45;;
38332;SDS011;25748;46.670;14.272;2022-11-18T00:21:56;7.80;;;3.95;;
38332;SDS011;25748;46.670;14.272;2022-11-18T00:24:23;4.80;;;2.63;;
38332;SDS011;25748;46.670;14.272;2022-11-18T00:26:49;9.50;;;3.35;;
38332;SDS011;25748;46.670;14.272;2022-11-18T00:29:14;5.50;;;2.83;;
38332;SDS011;25748;46.670;14.272;2022-11-18T00:31:41;8.02;;;3.22;;
38332;SDS011;25748;46.670;14.272;2022-11-18T00:34:09;5.07;;;2.50;;
38332;SDS011;25748;46.670;14.272;2022-11-18T00:36:41;4.53;;;2.55;;
38332;SDS011;25748;46.670;14.272;2022-11-18T00:39:09;4.93;;;2.30;;
38332;SDS011;25748;46.670;14.272;2022-11-18T00:41:36;7.03;;;2.80;;
38332;SDS011;25748;46.670;14.272;2022-11-18T00:44:20;8.50;;;3.10;;
38332;SDS011;25748;46.670;14.272;2022-11-18T00:46:46;6.75;;;3.22;;
38332;SDS011;25748;46.670;14.272;2022-11-18T00:49:11;7.18;;;2.95;;
38332;SDS011;25748;46.670;14.272;2022-11-18T00:51:37;7.75;;;3.03;;
38332;SDS011;25748;46.670;14.272;2022-11-18T00:54:04;5.45;;;3.22;;
38332;SDS011;25748;46.670;14.272;2022-11-18T00:56:30;5.30;;;2.95;;
38332;SDS011;25748;46.670;14.272;2022-11-18T00:58:56;10.25;;;2.88;;
38332;SDS011;25748;46.670;14.272;2022-11-18T01:01:21;5.65;;;3.10;;
38332;SDS011;25748;46.670;14.272;2022-11-18T01:03:47;8.40;;;3.15;;
38332;SDS011;25748;46.670;14.272;2022-11-18T01:06:13;8.70;;;3.33;;
38332;SDS011;25748;46.670;14.272;2022-11-18T01:08:38;7.55;;;2.90;;
38332;SDS011;25748;46.670;14.272;2022-11-18T01:11:04;5.70;;;2.70;;
38332;SDS011;25748;46.670;14.272;2022-11-18T01:13:48;8.85;;;3.30;;
38332;SDS011;25748;46.670;14.272;2022-11-18T01:16:19;8.50;;;2.97;;
38332;SDS011;25748;46.670;14.272;2022-11-18T01:18:49;6.07;;;3.05;;
38332;SDS011;25748;46.670;14.272;2022-11-18T01:21:18;8.20;;;3.83;;
38332;SDS011;25748;46.670;14.272;2022-11-18T01:23:44;7.72;;;3.45;;
38332;SDS011;25748;46.670;14.272;2022-11-18T01:26:10;5.95;;;2.72;;
38332;SDS011;25748;46.670;14.272;2022-11-18T01:28:38;8.50;;;3.45;;
38332;SDS011;25748;46.670;14.272;2022-11-18T01:31:08;6.93;;;3.22;;
38332;SDS011;25748;46.670;14.272;2022-11-18T01:33:36;6.22;;;2.90;;
38332;SDS011;25748;46.670;14.272;2022-11-18T01:36:02;5.75;;;2.90;;
38332;SDS011;25748;46.670;14.272;2022-11-18T01:38:28;8.27;;;2.72;;
38332;SDS011;25748;46.670;14.272;2022-11-18T01:40:54;6.93;;;3.03;;
38332;SDS011;25748;46.670;14.272;2022-11-18T01:43:21;5.90;;;2.65;;
38332;SDS011;25748;46.670;14.272;2022-11-18T01:45:48;6.43;;;3.58;;
38332;SDS011;25748;46.670;14.272;2022-11-18T01:48:17;11.00;;;3.50;;
38332;SDS011;25748;46.670;14.272;2022-11-18T01:50:46;7.60;;;3.03;;
38332;SDS011;25748;46.670;14.272;2022-11-18T01:53:20;11.82;;;3.78;;
38332;SDS011;25748;46.670;14.272;2022-11-18T01:55:50;6.47;;;3.17;;
38332;SDS011;25748;46.670;14.272;2022-11-18T01:58:23;6.60;;;2.80;;
38332;SDS011;25748;46.670;14.272;2022-11-18T02:00:50;6.78;;;3.03;;
38332;SDS011;25748;46.670;14.272;2022-11-18T02:03:17;6.15;;;2.97;;
38332;SDS011;25748;46.670;14.272;2022-11-18T02:05:44;5.25;;;2.58;;
38332;SDS011;25748;46.670;14.272;2022-11-18T02:08:11;8.90;;;3.70;;
38332;SDS011;25748;46.670;14.272;2022-11-18T02:10:38;5.32;;;2.80;;
38332;SDS011;25748;46.670;14.272;2022-11-18T02:13:04;7.38;;;3.05;;
38332;SDS011;25748;46.670;14.272;2022-11-18T02:15:54;5.22;;;2.50;;
38332;SDS011;25748;46.670;14.272;2022-11-18T02:29:40;5.32;;;2.13;;
38332;SDS011;25748;46.670;14.272;2022-11-18T02:32:15;5.90;;;2.70;;
38332;SDS011;25748;46.670;14.272;2022-11-18T02:34:51;5.53;;;2.28;;
38332;SDS011;25748;46.670;14.272;2022-11-18T02:37:30;5.18;;;2.60;;
38332;SDS011;25748;46.670;14.272;2022-11-18T02:40:29;6.50;;;2.70;;
38332;SDS011;25748;46.670;14.272;2022-11-18T02:43:03;6.20;;;2.78;;
38332;SDS011;25748;46.670;14.272;2022-11-18T02:45:47;9.52;;;2.75;;
38332;SDS011;25748;46.670;14.272;2022-11-18T02:48:16;6.53;;;2.63;;
38332;SDS011;25748;46.670;14.272;2022-11-18T02:50:44;7.18;;;2.75;;
38332;SDS011;25748;46.670;14.272;2022-11-18T02:53:13;7.32;;;3.20;;
38332;SDS011;25748;46.670;14.272;2022-11-18T02:55:43;5.90;;;2.63;;
38332;SDS011;25748;46.670;14.272;2022-11-18T02:58:10;6.93;;;2.95;;
38332;SDS011;25748;46.670;14.272;2022-11-18T03:00:38;6.20;;;2.63;;
38332;SDS011;25748;46.670;14.272;2022-11-18T03:06:03;9.32;;;2.65;;
38332;SDS011;25748;46.670;14.272;2022-11-18T03:08:46;5.57;;;3.03;;
38332;SDS011;25748;46.670;14.272;2022-11-18T03:11:47;4.85;;;2.67;;
38332;SDS011;25748;46.670;14.272;2022-11-18T03:19:34;4.47;;;2.50;;
38332;SDS011;25748;46.670;14.272;2022-11-18T03:22:25;9.25;;;3.38;;
38332;SDS011;25748;46.670;14.272;2022-11-18T03:27:56;6.00;;;3.38;;
38332;SDS011;25748;46.670;14.272;2022-11-18T03:30:25;8.07;;;3.40;;
38332;SDS011;25748;46.670;14.272;2022-11-18T03:32:52;7.32;;;3.00;;
38332;SDS011;25748;46.670;14.272;2022-11-18T03:35:26;6.60;;;2.85;;
38332;SDS011;25748;46.670;14.272;2022-11-18T03:37:58;7.60;;;3.30;;
38332;SDS011;25748;46.670;14.272;2022-11-18T03:40:30;6.57;;;2.88;;
38332;SDS011;25748;46.670;14.272;2022-11-18T03:43:00;6.68;;;3.20;;
38332;SDS011;25748;46.670;14.272;2022-11-18T03:45:40;5.88;;;2.70;;
38332;SDS011;25748;46.670;14.272;2022-11-18T03:48:12;7.55;;;3.45;;
38332;SDS011;25748;46.670;14.272;2022-11-18T03:50:47;6.20;;;3.10;;
38332;SDS011;25748;46.670;14.272;2022-11-18T03:53:18;7.18;;;3.15;;
38332;SDS011;25748;46.670;14.272;2022-11-18T03:55:47;7.50;;;4.03;;
38332;SDS011;25748;46.670;14.272;2022-11-18T03:58:18;6.18;;;3.10;;
38332;SDS011;25748;46.670;14.272;2022-11-18T04:00:51;10.38;;;4.15;;
38332;SDS011;25748;46.670;14.272;2022-11-18T04:03:20;7.10;;;3.03;;
38332;SDS011;25748;46.670;14.272;2022-11-18T04:05:46;11.00;;;3.10;;
38332;SDS011;25748;46.670;14.272;2022-11-18T04:08:20;9.45;;;3.47;;
38332;SDS011;25748;46.670;14.272;2022-11-18T04:11:22;13.93;;;3.35;;
38332;SDS011;25748;46.670;14.272;2022-11-18T04:14:07;7.72;;;3.53;;
38332;SDS011;25748;46.670;14.272;2022-11-18T04:16:41;7.43;;;3.20;;
38332;SDS011;25748;46.670;14.272;2022-11-18T04:19:08;7.15;;;3.28;;
38332;SDS011;25748;46.670;14.272;2022-11-18T04:21:33;7.47;;;3.05;;
38332;SDS011;25748;46.670;14.272;2022-11-18T04:23:59;11.50;;;3.97;;
38332;SDS011;25748;46.670;14.272;2022-11-18T04:26:25;8.05;;;3.35;;
38332;SDS011;25748;46.670;14.272;2022-11-18T04:28:50;9.35;;;3.47;;
38332;SDS011;25748;46.670;14.272;2022-11-18T04:31:16;10.27;;;4.38;;
38332;SDS011;25748;46.670;14.272;2022-11-18T04:33:42;10.07;;;3.58;;
38332;SDS011;25748;46.670;14.272;2022-11-18T04:36:07;7.75;;;3.70;;
38332;SDS011;25748;46.670;14.272;2022-11-18T04:38:33;22.50;;;5.28;;
38332;SDS011;25748;46.670;14.272;2022-11-18T04:40:59;10.93;;;3.13;;
38332;SDS011;25748;46.670;14.272;2022-11-18T04:43:24;11.45;;;4.18;;
38332;SDS011;25748;46.670;14.272;2022-11-18T04:45:50;14.63;;;4.45;;
38332;SDS011;25748;46.670;14.272;2022-11-18T04:48:16;9.45;;;3.92;;
38332;SDS011;25748;46.670;14.272;2022-11-18T04:50:43;8.80;;;4.22;;
38332;SDS011;25748;46.670;14.272;2022-11-18T04:53:08;8.40;;;2.92;;
38332;SDS011;25748;46.670;14.272;2022-11-18T04:55:35;11.63;;;4.68;;
38332;SDS011;25748;46.670;14.272;2022-11-18T04:58:01;9.60;;;3.88;;
38332;SDS011;25748;46.670;14.272;2022-11-18T05:00:26;11.32;;;3.88;;
38332;SDS011;25748;46.670;14.272;2022-11-18T05:02:52;14.32;;;3.85;;
38332;SDS011;25748;46.670;14.272;2022-11-18T05:05:18;8.95;;;3.80;;
38332;SDS011;25748;46.670;14.272;2022-11-18T05:07:43;11.30;;;3.55;;
38332;SDS011;25748;46.670;14.272;2022-11-18T05:10:09;9.13;;;3.50;;
38332;SDS011;25748;46.670;14.272;2022-11-18T05:12:35;7.25;;;3.30;;
38332;SDS011;25748;46.670;14.272;2022-11-18T05:15:12;9.52;;;4.07;;
38332;SDS011;25748;46.670;14.272;2022-11-18T05:17:39;13.07;;;4.57;;
38332;SDS011;25748;46.670;14.272;2022-11-18T05:20:04;10.48;;;3.38;;
38332;SDS011;25748;46.670;14.272;2022-11-18T05:22:30;9.63;;;3.80;;
38332;SDS011;25748;46.670;14.272;2022-11-18T05:24:56;10.57;;;3.53;;
38332;SDS011;25748;46.670;14.272;2022-11-18T05:27:22;10.15;;;4.10;;
38332;SDS011;25748;46.670;14.272;2022-11-18T05:29:47;7.13;;;3.83;;
38332;SDS011;25748;46.670;14.272;2022-11-18T05:32:13;8.68;;;3.60;;
38332;SDS011;25748;46.670;14.272;2022-11-18T05:34:39;10.55;;;4.30;;
38332;SDS011;25748;46.670;14.272;2022-11-18T05:37:05;8.98;;;3.72;;
38332;SDS011;25748;46.670;14.272;2022-11-18T05:39:31;6.45;;;2.95;;
38332;SDS011;25748;46.670;14.272;2022-11-18T05:41:58;7.75;;;4.07;;
38332;SDS011;25748;46.670;14.272;2022-11-18T05:44:42;9.30;;;4.10;;
38332;SDS011;25748;46.670;14.272;2022-11-18T05:47:08;10.05;;;4.25;;
38332;SDS011;25748;46.670;14.272;2022-11-18T05:49:34;12.00;;;3.85;;
38332;SDS011;25748;46.670;14.272;2022-11-18T05:52:00;16.45;;;4.13;;
38332;SDS011;25748;46.670;14.272;2022-11-18T05:54:25;8.98;;;3.35;;
38332;SDS011;25748;46.670;14.272;2022-11-18T05:56:52;7.25;;;3.53;;
38332;SDS011;25748;46.670;14.272;2022-11-18T05:59:18;10.27;;;3.90;;
38332;SDS011;25748;46.670;14.272;2022-11-18T06:01:45;13.50;;;4.00;;
38332;SDS011;25748;46.670;14.272;2022-11-18T06:06:49;9.70;;;3.92;;
38332;SDS011;25748;46.670;14.272;2022-11-18T06:09:19;10.20;;;3.90;;
38332;SDS011;25748;46.670;14.272;2022-11-18T06:11:51;10.43;;;3.80;;
38332;SDS011;25748;46.670;14.272;2022-11-18T06:16:52;12.57;;;5.13;;
38332;SDS011;25748;46.670;14.272;2022-11-18T06:19:22;14.20;;;4.93;;
38332;SDS011;25748;46.670;14.272;2022-11-18T06:21:48;8.32;;;4.22;;
38332;SDS011;25748;46.670;14.272;2022-11-18T06:24:14;14.32;;;4.95;;
38332;SDS011;25748;46.670;14.272;2022-11-18T06:26:40;12.98;;;4.32;;
38332;SDS011;25748;46.670;14.272;2022-11-18T06:29:07;11.52;;;4.60;;
38332;SDS011;25748;46.670;14.272;2022-11-18T06:31:35;10.73;;;4.38;;
38332;SDS011;25748;46.670;14.272;2022-11-18T06:34:01;14.32;;;5.25;;
38332;SDS011;25748;46.670;14.272;2022-11-18T06:36:26;11.60;;;4.88;;
38332;SDS011;25748;46.670;14.272;2022-11-18T06:38:52;12.68;;;4.80;;
38332;SDS011;25748;46.670;14.272;2022-11-18T06:41:18;9.60;;;4.57;;
38332;SDS011;25748;46.670;14.272;2022-11-18T06:43:43;14.13;;;4.97;;
38332;SDS011;25748;46.670;14.272;2022-11-18T06:46:13;9.63;;;4.28;;
38332;SDS011;25748;46.670;14.272;2022-11-18T06:48:59;12.85;;;4.03;;
38332;SDS011;25748;46.670;14.272;2022-11-18T06:51:26;12.40;;;4.45;;
38332;SDS011;25748;46.670;14.272;2022-11-18T06:53:52;12.48;;;4.90;;
38332;SDS011;25748;46.670;14.272;2022-11-18T06:56:19;14.00;;;4.95;;
38332;SDS011;25748;46.670;14.272;2022-11-18T06:58:45;13.88;;;4.60;;
38332;SDS011;25748;46.670;14.272;2022-11-18T07:01:13;9.25;;;4.25;;
38332;SDS011;25748;46.670;14.272;2022-11-18T07:03:39;13.55;;;4.30;;
38332;SDS011;25748;46.670;14.272;2022-11-18T07:06:06;11.00;;;4.60;;
38332;SDS011;25748;46.670;14.272;2022-11-18T07:08:36;14.00;;;4.20;;
38332;SDS011;25748;46.670;14.272;2022-11-18T07:11:04;13.60;;;4.80;;
38332;SDS011;25748;46.670;14.272;2022-11-18T07:13:31;13.82;;;4.53;;
38332;SDS011;25748;46.670;14.272;2022-11-18T07:16:01;11.38;;;5.50;;
38332;SDS011;25748;46.670;14.272;2022-11-18T07:18:29;11.37;;;5.40;;
38332;SDS011;25748;46.670;14.272;2022-11-18T07:21:05;8.38;;;4.20;;
38332;SDS011;25748;46.670;14.272;2022-11-18T07:23:33;11.52;;;4.78;;
38332;SDS011;25748;46.670;14.272;2022-11-18T07:25:59;11.02;;;4.68;;
38332;SDS011;25748;46.670;14.272;2022-11-18T07:28:25;13.68;;;5.40;;
38332;SDS011;25748;46.670;14.272;2022-11-18T07:30:59;12.27;;;6.15;;
38332;SDS011;25748;46.670;14.272;2022-11-18T07:33:26;11.95;;;5.22;;
38332;SDS011;25748;46.670;14.272;2022-11-18T07:35:52;15.38;;;5.75;;
38332;SDS011;25748;46.670;14.272;2022-11-18T07:38:18;11.25;;;4.80;;
38332;SDS011;25748;46.670;14.272;2022-11-18T07:40:43;13.05;;;4.97;;
38332;SDS011;25748;46.670;14.272;2022-11-18T07:43:09;11.02;;;4.75;;
38332;SDS011;25748;46.670;14.272;2022-11-18T07:45:35;11.48;;;4.47;;
38332;SDS011;25748;46.670;14.272;2022-11-18T07:48:03;15.02;;;5.25;;
38332;SDS011;25748;46.670;14.272;2022-11-18T07:50:29;10.43;;;4.93;;
38332;SDS011;25748;46.670;14.272;2022-11-18T07:52:55;15.15;;;4.57;;
38332;SDS011;25748;46.670;14.272;2022-11-18T07:55:21;19.50;;;5.35;;
38332;SDS011;25748;46.670;14.272;2022-11-18T07:57:47;12.65;;;4.78;;
38332;SDS011;25748;46.670;14.272;2022-11-18T08:00:12;15.60;;;4.75;;
38332;SDS011;25748;46.670;14.272;2022-11-18T08:02:38;14.77;;;4.75;;
38332;SDS011;25748;46.670;14.272;2022-11-18T08:05:04;10.00;;;3.95;;
38332;SDS011;25748;46.670;14.272;2022-11-18T08:07:30;10.73;;;4.38;;
38332;SDS011;25748;46.670;14.272;2022-11-18T08:09:56;7.68;;;3.60;;
38332;SDS011;25748;46.670;14.272;2022-11-18T08:12:21;10.82;;;4.47;;
38332;SDS011;25748;46.670;14.272;2022-11-18T08:14:47;7.57;;;3.90;;
38332;SDS011;25748;46.670;14.272;2022-11-18T08:17:13;10.77;;;4.60;;
38332;SDS011;25748;46.670;14.272;2022-11-18T08:19:38;8.05;;;3.97;;
38332;SDS011;25748;46.670;14.272;2022-11-18T08:22:04;9.57;;;4.25;;
38332;SDS011;25748;46.670;14.272;2022-11-18T08:24:30;8.93;;;4.22;;
38332;SDS011;25748;46.670;14.272;2022-11-18T08:26:55;10.95;;;3.45;;
38332;SDS011;25748;46.670;14.272;2022-11-18T08:29:21;9.05;;;3.78;;
38332;SDS011;25748;46.670;14.272;2022-11-18T08:31:48;13.05;;;3.55;;
38332;SDS011;25748;46.670;14.272;2022-11-18T08:34:13;8.25;;;3.45;;
38332;SDS011;25748;46.670;14.272;2022-11-18T08:36:39;5.28;;;2.55;;
38332;SDS011;25748;46.670;14.272;2022-11-18T08:39:06;6.55;;;2.47;;
38332;SDS011;25748;46.670;14.272;2022-11-18T08:41:36;5.22;;;2.35;;
38332;SDS011;25748;46.670;14.272;2022-11-18T08:44:07;3.38;;;2.03;;
38332;SDS011;25748;46.670;14.272;2022-11-18T08:46:37;6.05;;;2.38;;
38332;SDS011;25748;46.670;14.272;2022-11-18T08:49:02;6.85;;;2.88;;
38332;SDS011;25748;46.670;14.272;2022-11-18T08:51:28;9.48;;;2.90;;
38332;SDS011;25748;46.670;14.272;2022-11-18T08:53:54;7.25;;;2.60;;
38332;SDS011;25748;46.670;14.272;2022-11-18T08:56:21;6.05;;;2.83;;
38332;SDS011;25748;46.670;14.272;2022-11-18T08:58:47;9.68;;;2.65;;
38332;SDS011;25748;46.670;14.272;2022-11-18T09:01:13;9.32;;;2.40;;
38332;SDS011;25748;46.670;14.272;2022-11-18T09:03:39;4.18;;;1.75;;
38332;SDS011;25748;46.670;14.272;2022-11-18T09:06:06;5.28;;;2.60;;
38332;SDS011;25748;46.670;14.272;2022-11-18T09:08:33;3.85;;;1.67;;
38332;SDS011;25748;46.670;14.272;2022-11-18T09:11:03;8.73;;;2.47;;
38332;SDS011;25748;46.670;14.272;2022-11-18T09:15:57;5.20;;;2.75;;
38332;SDS011;25748;46.670;14.272;2022-11-18T09:18:23;7.53;;;2.53;;
38332;SDS011;25748;46.670;14.272;2022-11-18T09:20:58;7.47;;;3.42;;
38332;SDS011;25748;46.670;14.272;2022-11-18T09:23:33;7.93;;;2.88;;
38332;SDS011;25748;46.670;14.272;2022-11-18T09:26:00;9.23;;;3.45;;
38332;SDS011;25748;46.670;14.272;2022-11-18T09:28:28;12.45;;;3.47;;
38332;SDS011;25748;46.670;14.272;2022-11-18T09:30:54;8.45;;;3.67;;
38332;SDS011;25748;46.670;14.272;2022-11-18T09:33:21;9.70;;;3.63;;
38332;SDS011;25748;46.670;14.272;2022-11-18T09:35:46;8.65;;;3.30;;
38332;SDS011;25748;46.670;14.272;2022-11-18T09:38:12;10.90;;;3.85;;
38332;SDS011;25748;46.670;14.272;2022-11-18T09:43:27;6.18;;;2.85;;
38332;SDS011;25748;46.670;14.272;2022-11-18T09:46:07;6.43;;;3.00;;
38332;SDS011;25748;46.670;14.272;2022-11-18T09:49:02;6.93;;;3.28;;
38332;SDS011;25748;46.670;14.272;2022-11-18T09:51:38;5.20;;;2.40;;
38332;SDS011;25748;46.670;14.272;2022-11-18T09:54:56;5.50;;;2.78;;
38332;SDS011;25748;46.670;14.272;2022-11-18T09:57:08;6.60;;;2.97;;
38332;SDS011;25748;46.670;14.272;2022-11-18T09:59:39;8.80;;;3.20;;
38332;SDS011;25748;46.670;14.272;2022-11-18T10:02:22;9.00;;;2.85;;
38332;SDS011;25748;46.670;14.272;2022-11-18T10:05:14;5.53;;;2.78;;
38332;SDS011;25748;46.670;14.272;2022-11-18T10:08:07;10.18;;;3.60;;
38332;SDS011;25748;46.670;14.272;2022-11-18T10:11:06;12.73;;;3.50;;
38332;SDS011;25748;46.670;14.272;2022-11-18T10:21:56;9.65;;;4.05;;
38332;SDS011;25748;46.670;14.272;2022-11-18T10:24:41;7.10;;;3.05;;
38332;SDS011;25748;46.670;14.272;2022-11-18T10:27:13;11.43;;;3.63;;
38332;SDS011;25748;46.670;14.272;2022-11-18T10:29:40;8.98;;;3.33;;
38332;SDS011;25748;46.670;14.272;2022-11-18T10:32:08;8.80;;;3.88;;
38332;SDS011;25748;46.670;14.272;2022-11-18T10:34:55;9.05;;;3.80;;
38332;SDS011;25748;46.670;14.272;2022-11-18T10:37:23;7.60;;;3.38;;
38332;SDS011;25748;46.670;14.272;2022-11-18T10:39:50;8.88;;;3.95;;
38332;SDS011;25748;46.670;14.272;2022-11-18T10:44:48;10.07;;;3.67;;
38332;SDS011;25748;46.670;14.272;2022-11-18T10:47:15;12.10;;;3.63;;
38332;SDS011;25748;46.670;14.272;2022-11-18T10:49:48;9.15;;;3.97;;
38332;SDS011;25748;46.670;14.272;2022-11-18T10:52:14;10.20;;;3.30;;
38332;SDS011;25748;46.670;14.272;2022-11-18T10:54:40;6.35;;;3.28;;
38332;SDS011;25748;46.670;14.272;2022-11-18T10:59:54;7.30;;;3.72;;
38332;SDS011;25748;46.670;14.272;2022-11-18T11:05:01;8.13;;;3.35;;
38332;SDS011;25748;46.670;14.272;2022-11-18T11:07:39;12.57;;;3.47;;
38332;SDS011;25748;46.670;14.272;2022-11-18T11:12:31;13.07;;;4.22;;
38332;SDS011;25748;46.670;14.272;2022-11-18T11:15:03;14.55;;;3.67;;
38332;SDS011;25748;46.670;14.272;2022-11-18T11:17:50;6.03;;;3.25;;
38332;SDS011;25748;46.670;14.272;2022-11-18T11:20:46;6.47;;;2.92;;
38332;SDS011;25748;46.670;14.272;2022-11-18T11:23:13;6.97;;;2.97;;
38332;SDS011;25748;46.670;14.272;2022-11-18T11:25:46;6.05;;;3.20;;
38332;SDS011;25748;46.670;14.272;2022-11-18T11:30:50;5.78;;;2.55;;
38332;SDS011;25748;46.670;14.272;2022-11-18T11:33:51;6.00;;;3.13;;
38332;SDS011;25748;46.670;14.272;2022-11-18T11:36:35;6.57;;;3.03;;
38332;SDS011;25748;46.670;14.272;2022-11-18T11:39:29;5.38;;;2.85;;
38332;SDS011;25748;46.670;14.272;2022-11-18T11:56:51;4.95;;;2.13;;
38332;SDS011;25748;46.670;14.272;2022-11-18T12:04:57;3.28;;;1.77;;
38332;SDS011;25748;46.670;14.272;2022-11-18T12:07:32;3.90;;;2.03;;
38332;SDS011;25748;46.670;14.272;2022-11-18T12:12:57;7.30;;;2.28;;
38332;SDS011;25748;46.670;14.272;2022-11-18T12:15:49;3.72;;;2.35;;
38332;SDS011;25748;46.670;14.272;2022-11-18T12:21:03;3.50;;;2.35;;
38332;SDS011;25748;46.670;14.272;2022-11-18T12:23:29;4.75;;;2.72;;
38332;SDS011;25748;46.670;14.272;2022-11-18T12:25:57;3.25;;;1.85;;
38332;SDS011;25748;46.670;14.272;2022-11-18T12:28:30;4.05;;;2.08;;
38332;SDS011;25748;46.670;14.272;2022-11-18T12:33:51;4.18;;;2.33;;
38332;SDS011;25748;46.670;14.272;2022-11-18T12:36:28;3.67;;;2.10;;
38332;SDS011;25748;46.670;14.272;2022-11-18T12:38:55;5.00;;;2.17;;
38332;SDS011;25748;46.670;14.272;2022-11-18T12:46:51;5.13;;;2.25;;
38332;SDS011;25748;46.670;14.272;2022-11-18T12:54:29;4.05;;;1.98;;
38332;SDS011;25748;46.670;14.272;2022-11-18T12:56:57;4.85;;;2.35;;
38332;SDS011;25748;46.670;14.272;2022-11-18T12:59:30;2.78;;;1.70;;
38332;SDS011;25748;46.670;14.272;2022-11-18T13:02:01;3.72;;;1.80;;
38332;SDS011;25748;46.670;14.272;2022-11-18T13:04:39;4.00;;;1.83;;
38332;SDS011;25748;46.670;14.272;2022-11-18T13:07:06;11.45;;;2.80;;
38332;SDS011;25748;46.670;14.272;2022-11-18T13:09:54;6.43;;;2.95;;
38332;SDS011;25748;46.670;14.272;2022-11-18T13:12:21;6.32;;;2.58;;
38332;SDS011;25748;46.670;14.272;2022-11-18T13:14:51;5.03;;;2.97;;
38332;SDS011;25748;46.670;14.272;2022-11-18T13:17:41;6.15;;;2.90;;
38332;SDS011;25748;46.670;14.272;2022-11-18T13:20:34;6.00;;;2.75;;
38332;SDS011;25748;46.670;14.272;2022-11-18T13:26:02;6.30;;;3.30;;
38332;SDS011;25748;46.670;14.272;2022-11-18T13:34:19;5.45;;;2.63;;
38332;SDS011;25748;46.670;14.272;2022-11-18T13:36:47;4.57;;;2.35;;
38332;SDS011;25748;46.670;14.272;2022-11-18T13:41:56;8.27;;;3.35;;
38332;SDS011;25748;46.670;14.272;2022-11-18T13:44:25;5.32;;;3.30;;
38332;SDS011;25748;46.670;14.272;2022-11-18T13:46:53;5.70;;;2.60;;
38332;SDS011;25748;46.670;14.272;2022-11-18T13:49:38;12.20;;;3.45;;
38332;SDS011;25748;46.670;14.272;2022-11-18T13:52:21;8.35;;;3.15;;
38332;SDS011;25748;46.670;14.272;2022-11-18T13:57:18;5.88;;;2.75;;
38332;SDS011;25748;46.670;14.272;2022-11-18T13:59:47;6.00;;;2.53;;
38332;SDS011;25748;46.670;14.272;2022-11-18T14:02:14;7.05;;;2.92;;
38332;SDS011;25748;46.670;14.272;2022-11-18T14:04:59;8.68;;;3.05;;
38332;SDS011;25748;46.670;14.272;2022-11-18T14:07:30;8.73;;;3.42;;
38332;SDS011;25748;46.670;14.272;2022-11-18T14:10:01;6.20;;;2.83;;
38332;SDS011;25748;46.670;14.272;2022-11-18T14:12:32;8.40;;;2.58;;
38332;SDS011;25748;46.670;14.272;2022-11-18T14:15:18;8.43;;;2.60;;
38332;SDS011;25748;46.670;14.272;2022-11-18T14:17:52;4.47;;;2.63;;
38332;SDS011;25748;46.670;14.272;2022-11-18T14:20:23;6.18;;;2.20;;
38332;SDS011;25748;46.670;14.272;2022-11-18T14:22:52;5.28;;;2.95;;
38332;SDS011;25748;46.670;14.272;2022-11-18T14:27:50;5.97;;;2.47;;
38332;SDS011;25748;46.670;14.272;2022-11-18T14:30:28;5.60;;;2.80;;
38332;SDS011;25748;46.670;14.272;2022-11-18T14:35:58;17.58;;;4.90;;
38332;SDS011;25748;46.670;14.272;2022-11-18T14:41:14;12.63;;;4.85;;
38332;SDS011;25748;46.670;14.272;2022-11-18T14:44:03;15.10;;;4.43;;
38332;SDS011;25748;46.670;14.272;2022-11-18T14:46:29;9.73;;;3.97;;
38332;SDS011;25748;46.670;14.272;2022-11-18T14:48:56;13.90;;;4.93;;
38332;SDS011;25748;46.670;14.272;2022-11-18T14:51:22;13.45;;;4.18;;
38332;SDS011;25748;46.670;14.272;2022-11-18T14:53:48;11.88;;;4.07;;
38332;SDS011;25748;46.670;14.272;2022-11-18T14:56:20;9.57;;;4.10;;
38332;SDS011;25748;46.670;14.272;2022-11-18T14:58:49;8.43;;;3.53;;
38332;SDS011;25748;46.670;14.272;2022-11-18T15:01:15;7.35;;;3.50;;
38332;SDS011;25748;46.670;14.272;2022-11-18T15:03:41;9.70;;;4.82;;
38332;SDS011;25748;46.670;14.272;2022-11-18T15:06:11;18.63;;;7.80;;
38332;SDS011;25748;46.670;14.272;2022-11-18T15:08:38;18.92;;;9.13;;
38332;SDS011;25748;46.670;14.272;2022-11-18T15:11:04;27.10;;;12.63;;
38332;SDS011;25748;46.670;14.272;2022-11-18T15:13:30;24.95;;;10.60;;
38332;SDS011;25748;46.670;14.272;2022-11-18T15:15:56;31.40;;;14.63;;
38332;SDS011;25748;46.670;14.272;2022-11-18T15:18:21;34.72;;;15.23;;
38332;SDS011;25748;46.670;14.272;2022-11-18T15:20:49;9.70;;;5.60;;
38332;SDS011;25748;46.670;14.272;2022-11-18T15:23:15;8.13;;;4.03;;
38332;SDS011;25748;46.670;14.272;2022-11-18T15:25:41;9.52;;;3.42;;
38332;SDS011;25748;46.670;14.272;2022-11-18T15:28:10;4.47;;;2.78;;
38332;SDS011;25748;46.670;14.272;2022-11-18T15:30:36;7.82;;;3.10;;
38332;SDS011;25748;46.670;14.272;2022-11-18T15:33:02;3.80;;;2.50;;
38332;SDS011;25748;46.670;14.272;2022-11-18T15:35:28;4.60;;;2.65;;
38332;SDS011;25748;46.670;14.272;2022-11-18T15:37:54;21.58;;;9.20;;
38332;SDS011;25748;46.670;14.272;2022-11-18T15:40:19;9.27;;;5.10;;
38332;SDS011;25748;46.670;14.272;2022-11-18T15:42:45;13.57;;;8.25;;
38332;SDS011;25748;46.670;14.272;2022-11-18T15:45:11;14.40;;;4.70;;
38332;SDS011;25748;46.670;14.272;2022-11-18T15:47:37;10.23;;;5.13;;
38332;SDS011;25748;46.670;14.272;2022-11-18T15:50:02;10.27;;;5.63;;
38332;SDS011;25748;46.670;14.272;2022-11-18T15:52:28;9.82;;;4.90;;
38332;SDS011;25748;46.670;14.272;2022-11-18T15:54:54;15.85;;;3.75;;
38332;SDS011;25748;46.670;14.272;2022-11-18T15:57:19;8.82;;;3.58;;
38332;SDS011;25748;46.670;14.272;2022-11-18T15:59:45;5.15;;;2.65;;
38332;SDS011;25748;46.670;14.272;2022-11-18T16:02:11;4.38;;;2.25;;
38332;SDS011;25748;46.670;14.272;2022-11-18T16:04:37;5.97;;;2.72;;
38332;SDS011;25748;46.670;14.272;2022-11-18T16:07:03;8.60;;;3.72;;
38332;SDS011;25748;46.670;14.272;2022-11-18T16:09:28;14.02;;;3.25;;
38332;SDS011;25748;46.670;14.272;2022-11-18T16:12:14;7.03;;;2.13;;
38332;SDS011;25748;46.670;14.272;2022-11-18T16:14:59;10.38;;;3.25;;
38332;SDS011;25748;46.670;14.272;2022-11-18T16:17:43;4.95;;;2.80;;
38332;SDS011;25748;46.670;14.272;2022-11-18T16:20:09;4.18;;;2.17;;
38332;SDS011;25748;46.670;14.272;2022-11-18T16:22:35;6.18;;;2.60;;
38332;SDS011;25748;46.670;14.272;2022-11-18T16:25:00;11.38;;;2.35;;
38332;SDS011;25748;46.670;14.272;2022-11-18T16:27:26;12.88;;;2.75;;
38332;SDS011;25748;46.670;14.272;2022-11-18T16:29:52;5.07;;;2.92;;
38332;SDS011;25748;46.670;14.272;2022-11-18T16:32:17;4.97;;;2.35;;
38332;SDS011;25748;46.670;14.272;2022-11-18T16:34:43;5.85;;;2.42;;
38332;SDS011;25748;46.670;14.272;2022-11-18T16:37:09;7.70;;;2.47;;
38332;SDS011;25748;46.670;14.272;2022-11-18T16:39:34;6.22;;;2.83;;
38332;SDS011;25748;46.670;14.272;2022-11-18T16:42:00;10.63;;;2.70;;
38332;SDS011;25748;46.670;14.272;2022-11-18T16:44:26;4.00;;;2.42;;